sensor_id;sensor_type;location;lat;lon;timestamp;temperature;humidity
68274;SHT30;55104;47.356;19.448;2022-11-13T00:01:52;5.52;98.69
68274;SHT30;55104;47.356;19.448;2022-11-13T00:05:12;5.59;98.98
68274;SHT30;55104;47.356;19.448;2022-11-13T00:08:33;5.61;98.34
68274;SHT30;55104;47.356;19.448;2022-11-13T00:11:53;5.57;98.13
68274;SHT30;55104;47.356;19.448;2022-11-13T00:15:14;5.49;97.78
68274;SHT30;55104;47.356;19.448;2022-11-13T00:18:35;5.43;97.63
68274;SHT30;55104;47.356;19.448;2022-11-13T00:21:56;5.38;97.58
68274;SHT30;55104;47.356;19.448;2022-11-13T00:25:19;5.36;97.57
68274;SHT30;55104;47.356;19.448;2022-11-13T00:28:40;5.32;97.61
68274;SHT30;55104;47.356;19.448;2022-11-13T00:32:00;5.42;98.11
68274;SHT30;55104;47.356;19.448;2022-11-13T00:35:20;5.44;98.21
68274;SHT30;55104;47.356;19.448;2022-11-13T00:38:41;5.50;98.14
68274;SHT30;55104;47.356;19.448;2022-11-13T00:42:03;5.59;98.39
68274;SHT30;55104;47.356;19.448;2022-11-13T00:45:24;5.60;98.25
68274;SHT30;55104;47.356;19.448;2022-11-13T00:48:44;5.60;98.27
68274;SHT30;55104;47.356;19.448;2022-11-13T00:52:05;5.53;98.26
68274;SHT30;55104;47.356;19.448;2022-11-13T00:55:25;5.47;98.77
68274;SHT30;55104;47.356;19.448;2022-11-13T00:58:46;5.44;98.41
68274;SHT30;55104;47.356;19.448;2022-11-13T01:02:07;5.44;98.43
68274;SHT30;55104;47.356;19.448;2022-11-13T01:05:27;5.39;98.19
68274;SHT30;55104;47.356;19.448;2022-11-13T01:08:48;5.39;98.58
68274;SHT30;55104;47.356;19.448;2022-11-13T01:12:09;5.36;98.56
68274;SHT30;55104;47.356;19.448;2022-11-13T01:15:29;5.47;98.83
68274;SHT30;55104;47.356;19.448;2022-11-13T01:18:52;5.61;99.02
68274;SHT30;55104;47.356;19.448;2022-11-13T01:22:13;5.61;98.93
68274;SHT30;55104;47.356;19.448;2022-11-13T01:25:33;5.56;98.74
68274;SHT30;55104;47.356;19.448;2022-11-13T01:28:55;5.50;98.53
68274;SHT30;55104;47.356;19.448;2022-11-13T01:32:16;5.52;99.17
68274;SHT30;55104;47.356;19.448;2022-11-13T01:35:37;5.56;99.46
68274;SHT30;55104;47.356;19.448;2022-11-13T01:38:57;5.54;98.97
68274;SHT30;55104;47.356;19.448;2022-11-13T01:42:18;5.52;98.79
68274;SHT30;55104;47.356;19.448;2022-11-13T01:49:47;5.57;99.07
68274;SHT30;55104;47.356;19.448;2022-11-13T01:53:08;5.54;98.81
68274;SHT30;55104;47.356;19.448;2022-11-13T01:56:29;5.44;98.68
68274;SHT30;55104;47.356;19.448;2022-11-13T02:00:00;5.40;98.60
68274;SHT30;55104;47.356;19.448;2022-11-13T02:03:22;5.33;98.65
68274;SHT30;55104;47.356;19.448;2022-11-13T02:06:51;5.36;98.79
68274;SHT30;55104;47.356;19.448;2022-11-13T02:10:12;5.39;99.01
68274;SHT30;55104;47.356;19.448;2022-11-13T02:13:34;5.32;98.62
68274;SHT30;55104;47.356;19.448;2022-11-13T02:17:00;5.22;98.31
68274;SHT30;55104;47.356;19.448;2022-11-13T02:20:36;5.09;98.38
68274;SHT30;55104;47.356;19.448;2022-11-13T02:24:35;5.11;98.86
68274;SHT30;55104;47.356;19.448;2022-11-13T02:27:59;5.19;99.04
68274;SHT30;55104;47.356;19.448;2022-11-13T02:31:20;5.29;99.27
68274;SHT30;55104;47.356;19.448;2022-11-13T02:34:40;5.29;98.93
68274;SHT30;55104;47.356;19.448;2022-11-13T02:38:03;5.23;98.82
68274;SHT30;55104;47.356;19.448;2022-11-13T02:41:24;5.21;99.16
68274;SHT30;55104;47.356;19.448;2022-11-13T02:44:45;5.36;99.51
68274;SHT30;55104;47.356;19.448;2022-11-13T02:48:07;5.31;99.02
68274;SHT30;55104;47.356;19.448;2022-11-13T02:51:27;5.33;99.39
68274;SHT30;55104;47.356;19.448;2022-11-13T02:54:48;5.36;99.63
68274;SHT30;55104;47.356;19.448;2022-11-13T02:58:09;5.46;99.87
68274;SHT30;55104;47.356;19.448;2022-11-13T03:01:29;5.42;99.31
68274;SHT30;55104;47.356;19.448;2022-11-13T03:04:50;5.39;99.27
68274;SHT30;55104;47.356;19.448;2022-11-13T03:08:31;5.36;99.09
68274;SHT30;55104;47.356;19.448;2022-11-13T03:11:53;5.32;98.91
68274;SHT30;55104;47.356;19.448;2022-11-13T03:15:14;5.23;98.79
68274;SHT30;55104;47.356;19.448;2022-11-13T03:18:35;5.16;98.74
68274;SHT30;55104;47.356;19.448;2022-11-13T03:21:55;5.12;98.76
68274;SHT30;55104;47.356;19.448;2022-11-13T03:25:16;5.14;98.70
68274;SHT30;55104;47.356;19.448;2022-11-13T03:28:37;5.11;98.44
68274;SHT30;55104;47.356;19.448;2022-11-13T03:31:58;4.99;98.27
68274;SHT30;55104;47.356;19.448;2022-11-13T03:35:18;4.91;98.12
68274;SHT30;55104;47.356;19.448;2022-11-13T03:38:39;4.78;97.93
68274;SHT30;55104;47.356;19.448;2022-11-13T03:41:59;4.73;97.98
68274;SHT30;55104;47.356;19.448;2022-11-13T03:45:20;4.71;97.94
68274;SHT30;55104;47.356;19.448;2022-11-13T03:48:41;4.68;98.07
68274;SHT30;55104;47.356;19.448;2022-11-13T03:52:01;4.61;98.17
68274;SHT30;55104;47.356;19.448;2022-11-13T03:55:22;4.60;98.18
68274;SHT30;55104;47.356;19.448;2022-11-13T03:58:43;4.54;98.35
68274;SHT30;55104;47.356;19.448;2022-11-13T04:02:08;4.53;98.38
68274;SHT30;55104;47.356;19.448;2022-11-13T04:05:29;4.48;98.51
68274;SHT30;55104;47.356;19.448;2022-11-13T04:08:49;4.49;98.54
68274;SHT30;55104;47.356;19.448;2022-11-13T04:12:10;4.48;98.60
68274;SHT30;55104;47.356;19.448;2022-11-13T04:15:31;4.50;98.61
68274;SHT30;55104;47.356;19.448;2022-11-13T04:18:53;4.52;98.54
68274;SHT30;55104;47.356;19.448;2022-11-13T04:22:14;4.45;98.50
68274;SHT30;55104;47.356;19.448;2022-11-13T04:25:35;4.48;98.59
68274;SHT30;55104;47.356;19.448;2022-11-13T04:28:55;4.45;98.50
68274;SHT30;55104;47.356;19.448;2022-11-13T04:32:16;4.42;98.50
68274;SHT30;55104;47.356;19.448;2022-11-13T04:35:37;4.38;98.28
68274;SHT30;55104;47.356;19.448;2022-11-13T04:38:58;4.42;98.35
68274;SHT30;55104;47.356;19.448;2022-11-13T04:42:18;4.43;98.37
68274;SHT30;55104;47.356;19.448;2022-11-13T04:45:57;4.42;98.38
68274;SHT30;55104;47.356;19.448;2022-11-13T04:49:17;4.42;98.32
68274;SHT30;55104;47.356;19.448;2022-11-13T04:52:38;4.36;98.41
68274;SHT30;55104;47.356;19.448;2022-11-13T04:55:59;4.32;98.54
68274;SHT30;55104;47.356;19.448;2022-11-13T04:59:19;4.29;98.59
68274;SHT30;55104;47.356;19.448;2022-11-13T05:02:40;4.33;98.56
68274;SHT30;55104;47.356;19.448;2022-11-13T05:06:02;4.32;98.65
68274;SHT30;55104;47.356;19.448;2022-11-13T05:09:23;4.33;98.76
68274;SHT30;55104;47.356;19.448;2022-11-13T05:12:43;4.35;98.75
68274;SHT30;55104;47.356;19.448;2022-11-13T05:16:06;4.36;98.77
68274;SHT30;55104;47.356;19.448;2022-11-13T05:19:27;4.35;98.77
68274;SHT30;55104;47.356;19.448;2022-11-13T05:22:48;4.33;98.65
68274;SHT30;55104;47.356;19.448;2022-11-13T05:26:11;4.36;98.55
68274;SHT30;55104;47.356;19.448;2022-11-13T05:29:31;4.40;99.09
68274;SHT30;55104;47.356;19.448;2022-11-13T05:32:52;4.42;99.44
68274;SHT30;55104;47.356;19.448;2022-11-13T05:36:14;4.45;99.31
68274;SHT30;55104;47.356;19.448;2022-11-13T05:39:36;4.40;99.31
68274;SHT30;55104;47.356;19.448;2022-11-13T05:42:57;4.46;99.27
68274;SHT30;55104;47.356;19.448;2022-11-13T05:46:20;4.54;99.16
68274;SHT30;55104;47.356;19.448;2022-11-13T05:49:40;4.52;99.18
68274;SHT30;55104;47.356;19.448;2022-11-13T05:53:01;4.54;99.32
68274;SHT30;55104;47.356;19.448;2022-11-13T05:56:24;4.61;99.44
68274;SHT30;55104;47.356;19.448;2022-11-13T05:59:44;4.68;99.43
68274;SHT30;55104;47.356;19.448;2022-11-13T06:03:04;4.61;99.33
68274;SHT30;55104;47.356;19.448;2022-11-13T06:06:26;4.68;99.35
68274;SHT30;55104;47.356;19.448;2022-11-13T06:09:47;4.67;99.12
68274;SHT30;55104;47.356;19.448;2022-11-13T06:13:07;4.64;98.95
68274;SHT30;55104;47.356;19.448;2022-11-13T06:16:33;4.61;99.14
68274;SHT30;55104;47.356;19.448;2022-11-13T06:19:54;4.61;99.22
68274;SHT30;55104;47.356;19.448;2022-11-13T06:23:14;4.73;99.35
68274;SHT30;55104;47.356;19.448;2022-11-13T06:26:35;4.77;99.32
68274;SHT30;55104;47.356;19.448;2022-11-13T06:29:57;4.84;99.38
68274;SHT30;55104;47.356;19.448;2022-11-13T06:33:17;4.94;99.44
68274;SHT30;55104;47.356;19.448;2022-11-13T06:36:38;5.07;99.54
68274;SHT30;55104;47.356;19.448;2022-11-13T06:39:59;5.18;99.53
68274;SHT30;55104;47.356;19.448;2022-11-13T06:43:19;5.18;99.64
68274;SHT30;55104;47.356;19.448;2022-11-13T06:46:40;5.38;99.45
68274;SHT30;55104;47.356;19.448;2022-11-13T06:50:01;5.42;99.32
68274;SHT30;55104;47.356;19.448;2022-11-13T06:53:21;5.53;99.28
68274;SHT30;55104;47.356;19.448;2022-11-13T06:56:42;5.57;99.09
68274;SHT30;55104;47.356;19.448;2022-11-13T07:00:05;5.60;98.60
68274;SHT30;55104;47.356;19.448;2022-11-13T07:03:26;5.67;98.64
68274;SHT30;55104;47.356;19.448;2022-11-13T07:06:46;5.71;98.62
68274;SHT30;55104;47.356;19.448;2022-11-13T07:10:08;5.84;98.74
68274;SHT30;55104;47.356;19.448;2022-11-13T07:13:29;5.91;98.20
68274;SHT30;55104;47.356;19.448;2022-11-13T07:16:50;5.91;98.07
68274;SHT30;55104;47.356;19.448;2022-11-13T07:20:28;5.88;98.11
68274;SHT30;55104;47.356;19.448;2022-11-13T07:23:49;6.01;98.19
68274;SHT30;55104;47.356;19.448;2022-11-13T07:27:10;6.01;98.10
68274;SHT30;55104;47.356;19.448;2022-11-13T07:30:31;5.98;98.04
68274;SHT30;55104;47.356;19.448;2022-11-13T07:33:51;5.87;97.90
68274;SHT30;55104;47.356;19.448;2022-11-13T07:37:12;5.90;98.06
68274;SHT30;55104;47.356;19.448;2022-11-13T07:40:33;6.11;98.06
68274;SHT30;55104;47.356;19.448;2022-11-13T07:43:54;6.32;98.23
68274;SHT30;55104;47.356;19.448;2022-11-13T07:47:14;6.35;98.18
68274;SHT30;55104;47.356;19.448;2022-11-13T07:50:36;6.43;97.79
68274;SHT30;55104;47.356;19.448;2022-11-13T07:53:57;6.43;97.77
68274;SHT30;55104;47.356;19.448;2022-11-13T07:57:18;6.47;98.06
68274;SHT30;55104;47.356;19.448;2022-11-13T08:00:40;6.66;97.92
68274;SHT30;55104;47.356;19.448;2022-11-13T08:04:00;6.79;97.90
68274;SHT30;55104;47.356;19.448;2022-11-13T08:07:21;6.87;97.65
68274;SHT30;55104;47.356;19.448;2022-11-13T08:10:42;6.99;97.46
68274;SHT30;55104;47.356;19.448;2022-11-13T08:14:03;7.09;97.42
68274;SHT30;55104;47.356;19.448;2022-11-13T08:17:23;7.23;97.80
68274;SHT30;55104;47.356;19.448;2022-11-13T08:20:44;7.29;97.19
68274;SHT30;55104;47.356;19.448;2022-11-13T08:24:04;7.39;97.52
68274;SHT30;55104;47.356;19.448;2022-11-13T08:27:25;7.39;97.36
68274;SHT30;55104;47.356;19.448;2022-11-13T08:30:46;7.40;98.06
68274;SHT30;55104;47.356;19.448;2022-11-13T08:34:06;7.59;97.69
68274;SHT30;55104;47.356;19.448;2022-11-13T08:37:27;7.54;97.56
68274;SHT30;55104;47.356;19.448;2022-11-13T08:40:48;7.66;97.48
68274;SHT30;55104;47.356;19.448;2022-11-13T08:44:09;7.85;97.62
68274;SHT30;55104;47.356;19.448;2022-11-13T08:47:31;7.99;97.44
68274;SHT30;55104;47.356;19.448;2022-11-13T08:50:54;8.19;97.19
68274;SHT30;55104;47.356;19.448;2022-11-13T08:54:15;8.25;96.74
68274;SHT30;55104;47.356;19.448;2022-11-13T08:57:36;8.29;96.96
68274;SHT30;55104;47.356;19.448;2022-11-13T09:01:02;8.12;96.52
68274;SHT30;55104;47.356;19.448;2022-11-13T09:04:26;8.05;96.78
68274;SHT30;55104;47.356;19.448;2022-11-13T09:07:47;8.09;97.03
68274;SHT30;55104;47.356;19.448;2022-11-13T09:11:08;8.25;97.34
68274;SHT30;55104;47.356;19.448;2022-11-13T09:14:29;8.36;97.30
68274;SHT30;55104;47.356;19.448;2022-11-13T09:17:50;8.54;97.26
68274;SHT30;55104;47.356;19.448;2022-11-13T09:21:11;8.80;96.68
68274;SHT30;55104;47.356;19.448;2022-11-13T09:24:32;8.67;95.94
68274;SHT30;55104;47.356;19.448;2022-11-13T09:27:57;8.67;95.96
68274;SHT30;55104;47.356;19.448;2022-11-13T09:31:18;8.53;96.65
68274;SHT30;55104;47.356;19.448;2022-11-13T09:34:39;8.68;96.73
68274;SHT30;55104;47.356;19.448;2022-11-13T09:38:05;8.49;96.71
68274;SHT30;55104;47.356;19.448;2022-11-13T09:41:39;8.56;97.42
68274;SHT30;55104;47.356;19.448;2022-11-13T09:45:05;8.71;97.15
68274;SHT30;55104;47.356;19.448;2022-11-13T09:48:36;8.98;96.46
68274;SHT30;55104;47.356;19.448;2022-11-13T09:52:19;8.94;96.08
68274;SHT30;55104;47.356;19.448;2022-11-13T09:59:31;8.98;95.45
68274;SHT30;55104;47.356;19.448;2022-11-13T10:06:49;9.35;95.34
68274;SHT30;55104;47.356;19.448;2022-11-13T10:13:49;9.58;94.00
68274;SHT30;55104;47.356;19.448;2022-11-13T10:17:21;9.60;94.65
68274;SHT30;55104;47.356;19.448;2022-11-13T10:20:51;9.56;94.83
68274;SHT30;55104;47.356;19.448;2022-11-13T10:24:27;9.76;94.97
68274;SHT30;55104;47.356;19.448;2022-11-13T10:27:58;9.78;93.92
68274;SHT30;55104;47.356;19.448;2022-11-13T10:31:46;9.60;94.71
68274;SHT30;55104;47.356;19.448;2022-11-13T10:38:50;10.56;92.81
68274;SHT30;55104;47.356;19.448;2022-11-13T10:42:23;10.66;91.45
68274;SHT30;55104;47.356;19.448;2022-11-13T10:46:00;10.71;90.75
68274;SHT30;55104;47.356;19.448;2022-11-13T10:49:25;10.28;91.66
68274;SHT30;55104;47.356;19.448;2022-11-13T10:52:49;9.97;92.99
68274;SHT30;55104;47.356;19.448;2022-11-13T10:56:22;9.93;94.03
68274;SHT30;55104;47.356;19.448;2022-11-13T10:59:44;10.18;93.50
68274;SHT30;55104;47.356;19.448;2022-11-13T11:06:37;10.48;92.65
68274;SHT30;55104;47.356;19.448;2022-11-13T11:10:31;10.59;91.70
68274;SHT30;55104;47.356;19.448;2022-11-13T11:13:52;11.07;91.41
68274;SHT30;55104;47.356;19.448;2022-11-13T11:17:47;11.38;89.86
68274;SHT30;55104;47.356;19.448;2022-11-13T11:21:15;11.26;90.37
68274;SHT30;55104;47.356;19.448;2022-11-13T11:24:44;11.39;89.14
68274;SHT30;55104;47.356;19.448;2022-11-13T11:28:29;11.60;88.97
68274;SHT30;55104;47.356;19.448;2022-11-13T11:39:34;11.59;88.51
68274;SHT30;55104;47.356;19.448;2022-11-13T11:43:17;11.12;88.99
68274;SHT30;55104;47.356;19.448;2022-11-13T11:46:40;10.71;90.15
68274;SHT30;55104;47.356;19.448;2022-11-13T11:50:13;10.49;91.43
68274;SHT30;55104;47.356;19.448;2022-11-13T11:57:33;10.35;92.48
68274;SHT30;55104;47.356;19.448;2022-11-13T12:00:50;10.56;91.82
68274;SHT30;55104;47.356;19.448;2022-11-13T12:08:07;10.59;91.42
68274;SHT30;55104;47.356;19.448;2022-11-13T12:22:53;10.05;93.25
68274;SHT30;55104;47.356;19.448;2022-11-13T12:26:23;10.15;93.07
68274;SHT30;55104;47.356;19.448;2022-11-13T12:30:10;10.40;92.00
68274;SHT30;55104;47.356;19.448;2022-11-13T12:37:10;10.57;92.03
68274;SHT30;55104;47.356;19.448;2022-11-13T12:40:58;10.49;91.09
68274;SHT30;55104;47.356;19.448;2022-11-13T12:44:24;10.32;91.51
68274;SHT30;55104;47.356;19.448;2022-11-13T12:47:44;10.09;92.29
68274;SHT30;55104;47.356;19.448;2022-11-13T12:51:11;10.08;92.64
68274;SHT30;55104;47.356;19.448;2022-11-13T12:54:34;9.97;92.83
68274;SHT30;55104;47.356;19.448;2022-11-13T12:58:07;9.94;93.46
68274;SHT30;55104;47.356;19.448;2022-11-13T13:01:34;9.90;93.74
68274;SHT30;55104;47.356;19.448;2022-11-13T13:15:59;9.91;94.29
68274;SHT30;55104;47.356;19.448;2022-11-13T13:19:27;9.99;93.42
68274;SHT30;55104;47.356;19.448;2022-11-13T13:22:57;9.85;93.56
68274;SHT30;55104;47.356;19.448;2022-11-13T13:29:40;9.60;94.56
68274;SHT30;55104;47.356;19.448;2022-11-13T13:36:44;9.51;95.06
68274;SHT30;55104;47.356;19.448;2022-11-13T13:47:42;9.50;95.86
68274;SHT30;55104;47.356;19.448;2022-11-13T13:51:03;9.46;95.08
68274;SHT30;55104;47.356;19.448;2022-11-13T13:54:31;9.42;95.29
68274;SHT30;55104;47.356;19.448;2022-11-13T13:57:53;9.14;95.92
68274;SHT30;55104;47.356;19.448;2022-11-13T14:01:33;9.30;95.89
68274;SHT30;55104;47.356;19.448;2022-11-13T14:04:54;9.28;95.91
68274;SHT30;55104;47.356;19.448;2022-11-13T14:08:22;9.28;95.54
68274;SHT30;55104;47.356;19.448;2022-11-13T14:11:44;9.28;95.73
68274;SHT30;55104;47.356;19.448;2022-11-13T14:15:13;9.18;96.04
68274;SHT30;55104;47.356;19.448;2022-11-13T14:18:37;9.08;95.90
68274;SHT30;55104;47.356;19.448;2022-11-13T14:22:00;8.97;96.44
68274;SHT30;55104;47.356;19.448;2022-11-13T14:25:23;8.98;96.84
68274;SHT30;55104;47.356;19.448;2022-11-13T14:28:53;8.84;97.10
68274;SHT30;55104;47.356;19.448;2022-11-13T14:32:18;8.89;97.12
68274;SHT30;55104;47.356;19.448;2022-11-13T14:35:49;8.73;96.99
68274;SHT30;55104;47.356;19.448;2022-11-13T14:39:24;8.67;97.43
68274;SHT30;55104;47.356;19.448;2022-11-13T14:42:57;8.70;97.56
68274;SHT30;55104;47.356;19.448;2022-11-13T14:46:29;8.60;97.55
68274;SHT30;55104;47.356;19.448;2022-11-13T14:49:50;8.64;97.73
68274;SHT30;55104;47.356;19.448;2022-11-13T14:53:11;8.61;97.68
68274;SHT30;55104;47.356;19.448;2022-11-13T14:56:36;8.56;97.48
68274;SHT30;55104;47.356;19.448;2022-11-13T15:00:09;8.52;97.59
68274;SHT30;55104;47.356;19.448;2022-11-13T15:03:30;8.43;97.55
68274;SHT30;55104;47.356;19.448;2022-11-13T15:06:57;8.43;97.39
68274;SHT30;55104;47.356;19.448;2022-11-13T15:10:20;8.32;97.32
68274;SHT30;55104;47.356;19.448;2022-11-13T15:13:42;8.26;97.87
68274;SHT30;55104;47.356;19.448;2022-11-13T15:17:02;8.28;98.19
68274;SHT30;55104;47.356;19.448;2022-11-13T15:20:26;8.33;98.19
68274;SHT30;55104;47.356;19.448;2022-11-13T15:23:47;8.05;97.59
68274;SHT30;55104;47.356;19.448;2022-11-13T15:27:12;7.87;98.04
68274;SHT30;55104;47.356;19.448;2022-11-13T15:30:34;7.78;98.26
68274;SHT30;55104;47.356;19.448;2022-11-13T15:33:54;7.70;98.60
68274;SHT30;55104;47.356;19.448;2022-11-13T15:37:15;7.69;98.72
68274;SHT30;55104;47.356;19.448;2022-11-13T15:40:37;7.69;98.78
68274;SHT30;55104;47.356;19.448;2022-11-13T15:43:59;7.60;98.74
68274;SHT30;55104;47.356;19.448;2022-11-13T15:47:40;7.62;98.86
68274;SHT30;55104;47.356;19.448;2022-11-13T15:51:01;7.59;98.70
68274;SHT30;55104;47.356;19.448;2022-11-13T15:54:25;7.57;98.63
68274;SHT30;55104;47.356;19.448;2022-11-13T15:57:46;7.46;98.59
68274;SHT30;55104;47.356;19.448;2022-11-13T16:01:08;7.47;98.69
68274;SHT30;55104;47.356;19.448;2022-11-13T16:04:32;7.37;98.80
68274;SHT30;55104;47.356;19.448;2022-11-13T16:08:13;7.30;98.96
68274;SHT30;55104;47.356;19.448;2022-11-13T16:11:34;7.29;99.00
68274;SHT30;55104;47.356;19.448;2022-11-13T16:14:55;7.36;99.07
68274;SHT30;55104;47.356;19.448;2022-11-13T16:18:25;7.35;99.24
68274;SHT30;55104;47.356;19.448;2022-11-13T16:21:47;7.29;99.39
68274;SHT30;55104;47.356;19.448;2022-11-13T16:25:12;7.33;99.39
68274;SHT30;55104;47.356;19.448;2022-11-13T16:28:33;7.43;99.32
68274;SHT30;55104;47.356;19.448;2022-11-13T16:32:15;7.46;99.28
68274;SHT30;55104;47.356;19.448;2022-11-13T16:35:36;7.42;99.06
68274;SHT30;55104;47.356;19.448;2022-11-13T16:38:57;7.32;98.96
68274;SHT30;55104;47.356;19.448;2022-11-13T16:42:17;7.30;98.99
68274;SHT30;55104;47.356;19.448;2022-11-13T16:45:38;7.19;99.32
68274;SHT30;55104;47.356;19.448;2022-11-13T16:48:58;7.25;99.33
68274;SHT30;55104;47.356;19.448;2022-11-13T16:52:19;7.23;99.35
68274;SHT30;55104;47.356;19.448;2022-11-13T16:55:39;7.26;99.35
68274;SHT30;55104;47.356;19.448;2022-11-13T16:59:00;7.42;99.26
68274;SHT30;55104;47.356;19.448;2022-11-13T17:02:20;7.45;99.05
68274;SHT30;55104;47.356;19.448;2022-11-13T17:05:41;7.35;98.71
68274;SHT30;55104;47.356;19.448;2022-11-13T17:09:03;7.39;98.76
68274;SHT30;55104;47.356;19.448;2022-11-13T17:12:23;7.46;98.65
68274;SHT30;55104;47.356;19.448;2022-11-13T17:15:44;7.36;98.61
68274;SHT30;55104;47.356;19.448;2022-11-13T17:19:05;7.11;98.82
68274;SHT30;55104;47.356;19.448;2022-11-13T17:22:26;7.05;98.72
68274;SHT30;55104;47.356;19.448;2022-11-13T17:25:47;7.07;98.72
68274;SHT30;55104;47.356;19.448;2022-11-13T17:29:07;6.97;99.02
68274;SHT30;55104;47.356;19.448;2022-11-13T17:32:28;6.98;99.35
68274;SHT30;55104;47.356;19.448;2022-11-13T17:35:53;7.04;99.21
68274;SHT30;55104;47.356;19.448;2022-11-13T17:39:14;6.91;99.14
68274;SHT30;55104;47.356;19.448;2022-11-13T17:42:35;6.92;99.09
68274;SHT30;55104;47.356;19.448;2022-11-13T17:45:56;6.94;99.11
68274;SHT30;55104;47.356;19.448;2022-11-13T17:49:17;6.95;99.17
68274;SHT30;55104;47.356;19.448;2022-11-13T17:52:38;6.91;99.44
68274;SHT30;55104;47.356;19.448;2022-11-13T17:56:01;6.92;99.59
68274;SHT30;55104;47.356;19.448;2022-11-13T17:59:22;6.92;99.60
68274;SHT30;55104;47.356;19.448;2022-11-13T18:02:43;6.92;99.71
68274;SHT30;55104;47.356;19.448;2022-11-13T18:06:05;6.84;99.51
68274;SHT30;55104;47.356;19.448;2022-11-13T18:09:26;6.81;99.58
68274;SHT30;55104;47.356;19.448;2022-11-13T18:12:48;6.88;99.67
68274;SHT30;55104;47.356;19.448;2022-11-13T18:16:11;6.91;99.54
68274;SHT30;55104;47.356;19.448;2022-11-13T18:19:34;6.90;99.48
68274;SHT30;55104;47.356;19.448;2022-11-13T18:22:54;6.91;99.55
68274;SHT30;55104;47.356;19.448;2022-11-13T18:26:17;6.87;99.32
68274;SHT30;55104;47.356;19.448;2022-11-13T18:29:38;6.94;99.30
68274;SHT30;55104;47.356;19.448;2022-11-13T18:33:00;6.98;99.02
68274;SHT30;55104;47.356;19.448;2022-11-13T18:36:21;6.92;99.03
68274;SHT30;55104;47.356;19.448;2022-11-13T18:39:42;6.88;99.16
68274;SHT30;55104;47.356;19.448;2022-11-13T18:43:03;6.94;99.08
68274;SHT30;55104;47.356;19.448;2022-11-13T18:46:23;6.95;99.02
68274;SHT30;55104;47.356;19.448;2022-11-13T18:49:44;6.90;99.19
68274;SHT30;55104;47.356;19.448;2022-11-13T18:53:05;6.83;99.08
68274;SHT30;55104;47.356;19.448;2022-11-13T18:56:28;6.67;99.54
68274;SHT30;55104;47.356;19.448;2022-11-13T18:59:50;6.79;99.38
68274;SHT30;55104;47.356;19.448;2022-11-13T19:03:11;6.77;99.50
68274;SHT30;55104;47.356;19.448;2022-11-13T19:06:33;6.80;99.57
68274;SHT30;55104;47.356;19.448;2022-11-13T19:09:54;6.81;99.69
68274;SHT30;55104;47.356;19.448;2022-11-13T19:13:14;6.87;99.40
68274;SHT30;55104;47.356;19.448;2022-11-13T19:16:38;6.81;99.44
68274;SHT30;55104;47.356;19.448;2022-11-13T19:19:59;6.85;99.38
68274;SHT30;55104;47.356;19.448;2022-11-13T19:23:20;6.81;99.54
68274;SHT30;55104;47.356;19.448;2022-11-13T19:26:42;6.81;99.62
68274;SHT30;55104;47.356;19.448;2022-11-13T19:30:03;6.79;99.48
68274;SHT30;55104;47.356;19.448;2022-11-13T19:33:25;6.76;99.48
68274;SHT30;55104;47.356;19.448;2022-11-13T19:36:47;6.69;99.91
68274;SHT30;55104;47.356;19.448;2022-11-13T19:40:10;6.67;99.68
68274;SHT30;55104;47.356;19.448;2022-11-13T19:43:36;6.69;99.71
68274;SHT30;55104;47.356;19.448;2022-11-13T19:46:57;6.67;99.76
68274;SHT30;55104;47.356;19.448;2022-11-13T19:50:18;6.76;99.74
68274;SHT30;55104;47.356;19.448;2022-11-13T19:53:40;6.74;99.70
68274;SHT30;55104;47.356;19.448;2022-11-13T19:57:05;6.76;99.64
68274;SHT30;55104;47.356;19.448;2022-11-13T20:00:26;6.79;99.61
68274;SHT30;55104;47.356;19.448;2022-11-13T20:03:52;6.85;99.53
68274;SHT30;55104;47.356;19.448;2022-11-13T20:07:13;6.90;99.33
68274;SHT30;55104;47.356;19.448;2022-11-13T20:10:34;6.92;99.09
68274;SHT30;55104;47.356;19.448;2022-11-13T20:13:55;6.90;99.13
68274;SHT30;55104;47.356;19.448;2022-11-13T20:17:16;6.90;98.91
68274;SHT30;55104;47.356;19.448;2022-11-13T20:20:44;6.91;98.86
68274;SHT30;55104;47.356;19.448;2022-11-13T20:24:12;6.81;99.19
68274;SHT30;55104;47.356;19.448;2022-11-13T20:27:33;6.79;99.42
68274;SHT30;55104;47.356;19.448;2022-11-13T20:31:04;6.77;99.59
68274;SHT30;55104;47.356;19.448;2022-11-13T20:34:25;6.80;99.70
68274;SHT30;55104;47.356;19.448;2022-11-13T20:37:45;6.81;99.75
68274;SHT30;55104;47.356;19.448;2022-11-13T20:41:09;6.80;99.80
68274;SHT30;55104;47.356;19.448;2022-11-13T20:44:30;6.80;99.74
68274;SHT30;55104;47.356;19.448;2022-11-13T20:47:50;6.80;99.73
68274;SHT30;55104;47.356;19.448;2022-11-13T20:51:16;6.79;99.64
68274;SHT30;55104;47.356;19.448;2022-11-13T20:54:39;6.81;99.58
68274;SHT30;55104;47.356;19.448;2022-11-13T20:58:00;6.77;99.18
68274;SHT30;55104;47.356;19.448;2022-11-13T21:01:23;6.80;99.17
68274;SHT30;55104;47.356;19.448;2022-11-13T21:04:44;6.66;99.37
68274;SHT30;55104;47.356;19.448;2022-11-13T21:08:08;6.63;99.38
68274;SHT30;55104;47.356;19.448;2022-11-13T21:11:29;6.67;99.22
68274;SHT30;55104;47.356;19.448;2022-11-13T21:14:49;6.69;99.30
68274;SHT30;55104;47.356;19.448;2022-11-13T21:18:11;6.69;99.28
68274;SHT30;55104;47.356;19.448;2022-11-13T21:21:32;6.58;99.36
68274;SHT30;55104;47.356;19.448;2022-11-13T21:24:53;6.66;99.47
68274;SHT30;55104;47.356;19.448;2022-11-13T21:28:13;6.67;99.18
68274;SHT30;55104;47.356;19.448;2022-11-13T21:31:44;6.67;99.28
68274;SHT30;55104;47.356;19.448;2022-11-13T21:35:05;6.61;99.30
68274;SHT30;55104;47.356;19.448;2022-11-13T21:38:26;6.61;99.28
68274;SHT30;55104;47.356;19.448;2022-11-13T21:41:47;6.66;99.23
68274;SHT30;55104;47.356;19.448;2022-11-13T21:45:08;6.69;99.31
68274;SHT30;55104;47.356;19.448;2022-11-13T21:48:29;6.67;99.27
68274;SHT30;55104;47.356;19.448;2022-11-13T21:51:52;6.57;99.32
68274;SHT30;55104;47.356;19.448;2022-11-13T21:55:13;6.53;99.44
68274;SHT30;55104;47.356;19.448;2022-11-13T21:58:37;6.54;99.45
68274;SHT30;55104;47.356;19.448;2022-11-13T22:01:58;6.58;99.53
68274;SHT30;55104;47.356;19.448;2022-11-13T22:05:19;6.54;99.57
68274;SHT30;55104;47.356;19.448;2022-11-13T22:08:40;6.57;99.53
68274;SHT30;55104;47.356;19.448;2022-11-13T22:12:02;6.50;99.68
68274;SHT30;55104;47.356;19.448;2022-11-13T22:15:22;6.43;99.83
68274;SHT30;55104;47.356;19.448;2022-11-13T22:18:43;6.49;99.74
68274;SHT30;55104;47.356;19.448;2022-11-13T22:22:05;6.42;99.98
68274;SHT30;55104;47.356;19.448;2022-11-13T22:25:25;6.44;99.85
68274;SHT30;55104;47.356;19.448;2022-11-13T22:28:47;6.40;99.94
68274;SHT30;55104;47.356;19.448;2022-11-13T22:32:08;6.37;99.92
68274;SHT30;55104;47.356;19.448;2022-11-13T22:35:28;6.35;99.99
68274;SHT30;55104;47.356;19.448;2022-11-13T22:38:49;6.47;99.98
68274;SHT30;55104;47.356;19.448;2022-11-13T22:42:10;6.46;99.93